Time;durP1;ratioP1;P1;durP2;ratioP2;P2;SDS_P1;SDS_P2;PMS_P1;PMS_P2;Temp;Humidity;BMP_temperature;BMP_pressure;BME280_temperature;BME280_humidity;BME280_pressure;Samples;Min_cycle;Max_cycle;Signal;HPM_P1;HPM_P2
2023/04/01 00:00:20;;;;;;;4.20;3.07;;;;;;;;;;5020596;28;20319;-52
2023/04/01 00:02:47;;;;;;;2.40;2.20;;;;;;;;;;5033849;28;20706;-51
2023/04/01 00:05:16;;;;;;;4.00;2.53;;;;;;;;;;5031468;28;20224;-53
2023/04/01 00:07:42;;;;;;;4.80;2.23;;;;;;;;;;5023957;28;20632;-52
2023/04/01 00:10:10;;;;;;;4.37;2.43;;;;;;;;;;5036787;28;20240;-52
2023/04/01 00:12:37;;;;;;;3.73;1.90;;;;;;;;;;5010449;28;20232;-53
2023/04/01 00:15:04;;;;;;;2.10;1.90;;;;;;;;;;5024307;28;20588;-52
2023/04/01 00:17:31;;;;;;;3.30;2.17;;;;;;;;;;5032809;28;20237;-52
2023/04/01 00:19:57;;;;;;;3.40;2.50;;;;;;;;;;5025349;28;20323;-52
2023/04/01 00:22:26;;;;;;;1.77;1.67;;;;;;;;;;5023633;28;20714;-53
2023/04/01 00:24:52;;;;;;;2.83;1.77;;;;;;;;;;5024104;28;20264;-52
2023/04/01 00:27:18;;;;;;;3.03;2.00;;;;;;;;;;5025710;28;20260;-53
2023/04/01 00:29:46;;;;;;;2.30;1.70;;;;;;;;;;5024935;28;20235;-52
2023/04/01 00:32:12;;;;;;;2.30;1.97;;;;;;;;;;5023928;28;20302;-52
2023/04/01 00:34:39;;;;;;;2.10;1.90;;;;;;;;;;5032695;28;20611;-52
2023/04/01 00:37:06;;;;;;;3.23;2.47;;;;;;;;;;5043427;28;20240;-52
2023/04/01 00:39:34;;;;;;;2.30;2.10;;;;;;;;;;5043290;28;20255;-52
2023/04/01 00:42:01;;;;;;;2.33;1.80;;;;;;;;;;5045082;28;20604;-53
2023/04/01 00:44:28;;;;;;;3.67;2.97;;;;;;;;;;5040454;28;20239;-53
2023/04/01 00:46:55;;;;;;;3.00;2.00;;;;;;;;;;5042590;28;20310;-52
2023/04/01 00:49:23;;;;;;;3.30;1.70;;;;;;;;;;5043557;28;20243;-52
2023/04/01 00:51:52;;;;;;;3.80;2.00;;;;;;;;;;5033101;28;20229;-52
2023/04/01 00:54:20;;;;;;;2.93;1.90;;;;;;;;;;5023986;28;20244;-53
2023/04/01 00:56:49;;;;;;;2.13;1.60;;;;;;;;;;5031147;28;20701;-52
2023/04/01 00:59:18;;;;;;;3.10;2.13;;;;;;;;;;5023884;28;20787;-52
2023/04/01 01:01:44;;;;;;;5.67;2.57;;;;;;;;;;5032279;28;20248;-52
2023/04/01 01:04:22;;;;;;;5.83;2.23;;;;;;;;;;5032753;28;20240;-52
2023/04/01 01:06:52;;;;;;;8.37;2.37;;;;;;;;;;5040330;28;20306;-52
2023/04/01 01:09:24;;;;;;;2.30;1.63;;;;;;;;;;5030873;28;20305;-53
2023/04/01 01:11:55;;;;;;;1.93;1.63;;;;;;;;;;5043324;28;20286;-53
2023/04/01 01:14:26;;;;;;;2.00;1.90;;;;;;;;;;5037974;28;20248;-52
2023/04/01 01:16:56;;;;;;;2.70;2.37;;;;;;;;;;5036610;28;20255;-53
2023/04/01 01:19:33;;;;;;;2.90;2.50;;;;;;;;;;5031652;28;20682;-52
2023/04/01 01:22:07;;;;;;;2.77;1.80;;;;;;;;;;5021914;28;20239;-52
2023/04/01 01:24:43;;;;;;;1.80;1.60;;;;;;;;;;5023953;28;20537;-52
2023/04/01 01:27:12;;;;;;;2.00;1.67;;;;;;;;;;5034950;28;20240;-52
2023/04/01 01:29:53;;;;;;;3.90;2.00;;;;;;;;;;5035565;28;20695;-53
2023/04/01 01:32:25;;;;;;;2.53;1.80;;;;;;;;;;5023411;28;20246;-52
2023/04/01 01:34:55;;;;;;;3.00;2.10;;;;;;;;;;5028603;28;20225;-52
2023/04/01 01:37:25;;;;;;;2.07;1.77;;;;;;;;;;5023436;28;20264;-53
2023/04/01 01:39:54;;;;;;;1.70;1.60;;;;;;;;;;5024545;28;20282;-53
2023/04/01 01:42:21;;;;;;;2.70;1.70;;;;;;;;;;5023135;28;20618;-53
2023/04/01 01:44:50;;;;;;;1.93;1.70;;;;;;;;;;5027785;28;20232;-53
2023/04/01 01:47:17;;;;;;;2.53;2.03;;;;;;;;;;5024789;28;20247;-52
2023/04/01 01:49:44;;;;;;;4.10;3.47;;;;;;;;;;5023740;28;20228;-53
2023/04/01 01:52:11;;;;;;;4.17;2.10;;;;;;;;;;5022991;28;20232;-53
2023/04/01 01:54:47;;;;;;;1.57;1.43;;;;;;;;;;5022092;28;20649;-52
2023/04/01 01:57:15;;;;;;;1.93;1.73;;;;;;;;;;5022319;28;20276;-52
2023/04/01 01:59:43;;;;;;;3.10;1.80;;;;;;;;;;5030163;28;20559;-53
2023/04/01 02:02:10;;;;;;;2.67;1.60;;;;;;;;;;5011992;28;20765;-52
2023/04/01 02:04:39;;;;;;;1.97;1.73;;;;;;;;;;5021513;28;20232;-51
2023/04/01 02:07:08;;;;;;;2.03;1.60;;;;;;;;;;5043645;28;20589;-53
2023/04/01 02:09:35;;;;;;;2.43;1.40;;;;;;;;;;5035545;28;20232;-52
2023/04/01 02:12:05;;;;;;;1.87;1.40;;;;;;;;;;5022797;28;20287;-52
2023/04/01 02:14:37;;;;;;;2.07;1.80;;;;;;;;;;5022313;28;20243;-52
2023/04/01 02:17:06;;;;;;;2.77;1.30;;;;;;;;;;5022221;28;20248;-52
2023/04/01 02:19:35;;;;;;;2.40;1.40;;;;;;;;;;5022067;28;20973;-52
2023/04/01 02:22:02;;;;;;;1.80;1.33;;;;;;;;;;5023705;28;20248;-51
2023/04/01 02:24:30;;;;;;;1.63;1.43;;;;;;;;;;5023820;28;20236;-51
2023/04/01 02:26:56;;;;;;;3.27;1.80;;;;;;;;;;5023626;28;20252;-52
2023/04/01 02:29:25;;;;;;;3.80;1.97;;;;;;;;;;5021952;28;20251;-51
2023/04/01 02:31:52;;;;;;;3.53;1.90;;;;;;;;;;5016407;28;20238;-52
2023/04/01 02:34:19;;;;;;;4.03;2.20;;;;;;;;;;5026705;28;20667;-52
2023/04/01 02:36:45;;;;;;;3.90;2.67;;;;;;;;;;5022938;28;20229;-52
2023/04/01 02:39:12;;;;;;;6.17;2.67;;;;;;;;;;5030671;28;20311;-51
2023/04/01 02:41:41;;;;;;;4.80;3.27;;;;;;;;;;5042567;28;20579;-51
2023/04/01 02:44:08;;;;;;;3.73;2.33;;;;;;;;;;5028684;28;20657;-51
2023/04/01 02:46:36;;;;;;;2.53;1.80;;;;;;;;;;5030919;28;20291;-51
2023/04/01 02:49:03;;;;;;;2.70;2.13;;;;;;;;;;5025017;28;20241;-51
2023/04/01 02:51:31;;;;;;;2.27;1.53;;;;;;;;;;5032327;28;20425;-52
2023/04/01 02:53:58;;;;;;;2.20;1.73;;;;;;;;;;5046266;28;20274;-53
2023/04/01 02:56:25;;;;;;;1.80;1.70;;;;;;;;;;5046276;28;20236;-52
2023/04/01 02:58:52;;;;;;;2.93;1.97;;;;;;;;;;5032779;28;20225;-52
2023/04/01 03:01:18;;;;;;;2.10;1.90;;;;;;;;;;5025783;28;20228;-52
2023/04/01 03:03:46;;;;;;;4.70;2.20;;;;;;;;;;5026635;28;20228;-52
2023/04/01 03:06:14;;;;;;;5.10;2.67;;;;;;;;;;5025602;28;20241;-53
2023/04/01 03:08:41;;;;;;;3.57;2.20;;;;;;;;;;5026238;28;20319;-53
2023/04/01 03:11:07;;;;;;;4.07;1.83;;;;;;;;;;5035039;28;20228;-52
2023/04/01 03:13:34;;;;;;;3.67;2.20;;;;;;;;;;5033907;28;20648;-52
2023/04/01 03:16:01;;;;;;;3.57;1.93;;;;;;;;;;5025494;28;20244;-52
2023/04/01 03:18:27;;;;;;;3.90;2.63;;;;;;;;;;5025187;28;20316;-52
2023/04/01 03:20:55;;;;;;;3.27;2.03;;;;;;;;;;5025043;28;20573;-52
2023/04/01 03:23:24;;;;;;;3.93;1.80;;;;;;;;;;5023143;28;20316;-52
2023/04/01 03:25:51;;;;;;;3.37;2.57;;;;;;;;;;5026096;28;20233;-53
2023/04/01 03:28:17;;;;;;;3.33;1.90;;;;;;;;;;5025635;28;20332;-52
2023/04/01 03:30:44;;;;;;;2.87;1.67;;;;;;;;;;5025573;28;20232;-52
2023/04/01 03:33:10;;;;;;;2.50;1.87;;;;;;;;;;5025297;28;20228;-53
2023/04/01 03:35:37;;;;;;;5.97;3.03;;;;;;;;;;5020965;28;20310;-53
2023/04/01 03:38:04;;;;;;;4.77;2.87;;;;;;;;;;5024728;28;20236;-52
2023/04/01 03:40:32;;;;;;;1.60;1.50;;;;;;;;;;5025665;28;20286;-53
2023/04/01 03:42:59;;;;;;;2.77;2.13;;;;;;;;;;5025828;28;20642;-52
2023/04/01 03:45:26;;;;;;;2.80;2.30;;;;;;;;;;5035055;28;20463;-53
2023/04/01 03:47:52;;;;;;;2.30;1.73;;;;;;;;;;5044886;28;20496;-53
2023/04/01 03:50:19;;;;;;;2.17;1.83;;;;;;;;;;5043471;28;20319;-53
2023/04/01 03:52:46;;;;;;;2.43;2.23;;;;;;;;;;5040022;28;20236;-53
2023/04/01 03:55:14;;;;;;;3.20;2.00;;;;;;;;;;5045354;28;20236;-52
2023/04/01 03:57:40;;;;;;;2.10;1.90;;;;;;;;;;5040008;28;20241;-53
2023/04/01 04:00:08;;;;;;;4.67;2.10;;;;;;;;;;5036481;28;20235;-53
2023/04/01 04:02:35;;;;;;;2.67;1.60;;;;;;;;;;5031743;28;20240;-51
2023/04/01 04:05:02;;;;;;;2.93;1.77;;;;;;;;;;5039003;28;20650;-53
2023/04/01 04:07:28;;;;;;;5.37;2.13;;;;;;;;;;5036234;28;20360;-52
2023/04/01 04:09:55;;;;;;;5.27;2.50;;;;;;;;;;5026334;28;20291;-52
2023/04/01 04:12:22;;;;;;;2.60;1.53;;;;;;;;;;5031622;28;20744;-51
2023/04/01 04:14:49;;;;;;;4.00;2.13;;;;;;;;;;5033615;28;20258;-52
2023/04/01 04:17:16;;;;;;;2.07;1.87;;;;;;;;;;5034064;28;20243;-52
2023/04/01 04:19:42;;;;;;;3.00;1.70;;;;;;;;;;5036042;28;20315;-52
2023/04/01 04:22:09;;;;;;;1.67;1.57;;;;;;;;;;5041958;28;20243;-52
2023/04/01 04:24:37;;;;;;;2.87;1.90;;;;;;;;;;5039379;28;20281;-53
2023/04/01 04:27:03;;;;;;;2.13;1.53;;;;;;;;;;5036507;28;20255;-54
2023/04/01 04:29:31;;;;;;;1.57;1.47;;;;;;;;;;5037248;28;20612;-52
2023/04/01 04:31:58;;;;;;;1.77;1.60;;;;;;;;;;5029928;28;20255;-52
2023/04/01 04:34:24;;;;;;;2.43;1.83;;;;;;;;;;5028193;28;20292;-52
2023/04/01 04:36:51;;;;;;;1.90;1.63;;;;;;;;;;5024638;28;20244;-53
2023/04/01 04:39:17;;;;;;;2.97;1.87;;;;;;;;;;5024955;28;20313;-53
2023/04/01 04:41:44;;;;;;;2.00;1.80;;;;;;;;;;5023952;28;20240;-52
2023/04/01 04:44:10;;;;;;;2.57;2.33;;;;;;;;;;5028907;28;20236;-51
2023/04/01 04:46:39;;;;;;;3.63;2.10;;;;;;;;;;5039992;28;20251;-52
2023/04/01 04:49:05;;;;;;;2.87;1.57;;;;;;;;;;5038030;28;20243;-51
2023/04/01 04:51:33;;;;;;;2.40;1.87;;;;;;;;;;5037454;28;20259;-52
2023/04/01 04:54:00;;;;;;;2.27;1.53;;;;;;;;;;5024729;28;20244;-52
2023/04/01 04:56:26;;;;;;;3.03;1.70;;;;;;;;;;5022286;28;20327;-51
2023/04/01 04:58:53;;;;;;;2.47;2.23;;;;;;;;;;5037302;28;20318;-52
2023/04/01 05:01:20;;;;;;;3.50;1.77;;;;;;;;;;5043792;28;20242;-53
2023/04/01 05:03:48;;;;;;;2.10;1.90;;;;;;;;;;5044551;28;20247;-51
2023/04/01 05:06:15;;;;;;;5.30;2.33;;;;;;;;;;5041527;28;20243;-52
2023/04/01 05:08:42;;;;;;;3.87;1.93;;;;;;;;;;5040649;28;20234;-51
2023/04/01 05:11:11;;;;;;;2.40;2.10;;;;;;;;;;5039961;28;20232;-54
2023/04/01 05:13:37;;;;;;;3.40;1.73;;;;;;;;;;5043577;28;20726;-51
2023/04/01 05:16:04;;;;;;;2.67;2.40;;;;;;;;;;5043052;28;20253;-51
2023/04/01 05:18:30;;;;;;;1.80;1.70;;;;;;;;;;5042441;28;20258;-51
2023/04/01 05:20:59;;;;;;;3.40;1.67;;;;;;;;;;5041984;28;20255;-52
2023/04/01 05:23:25;;;;;;;2.57;2.10;;;;;;;;;;5040957;28;20266;-51
2023/04/01 05:25:53;;;;;;;2.03;1.83;;;;;;;;;;5042426;28;20302;-52
2023/04/01 05:28:20;;;;;;;2.83;2.10;;;;;;;;;;5039122;28;20654;-52
2023/04/01 05:30:46;;;;;;;3.40;2.50;;;;;;;;;;5042240;28;20293;-51
2023/04/01 05:33:13;;;;;;;1.90;1.77;;;;;;;;;;5042307;28;20292;-51
2023/04/01 05:35:40;;;;;;;2.93;2.20;;;;;;;;;;5023306;28;20224;-52
2023/04/01 05:38:09;;;;;;;4.50;2.70;;;;;;;;;;5023294;28;20233;-52
2023/04/01 05:40:35;;;;;;;4.00;2.43;;;;;;;;;;5022286;28;20604;-53
2023/04/01 05:43:02;;;;;;;3.73;2.33;;;;;;;;;;5026510;28;20574;-52
2023/04/01 05:45:28;;;;;;;3.10;2.10;;;;;;;;;;5031696;28;20316;-52
2023/04/01 05:47:55;;;;;;;2.20;2.00;;;;;;;;;;5023104;28;20232;-52
2023/04/01 05:50:22;;;;;;;3.53;2.23;;;;;;;;;;5022508;28;20764;-51
2023/04/01 05:52:48;;;;;;;5.90;2.43;;;;;;;;;;5038977;28;20331;-53
2023/04/01 05:55:16;;;;;;;2.40;2.17;;;;;;;;;;5041147;28;20239;-51
2023/04/01 05:57:43;;;;;;;2.70;2.20;;;;;;;;;;5039805;28;20236;-51
2023/04/01 06:00:10;;;;;;;3.60;2.53;;;;;;;;;;5042488;28;20232;-52
2023/04/01 06:02:38;;;;;;;3.23;2.07;;;;;;;;;;5023707;28;20251;-52
2023/04/01 06:05:12;;;;;;;2.70;2.17;;;;;;;;;;5023590;28;20224;-51
2023/04/01 06:07:38;;;;;;;3.33;2.20;;;;;;;;;;5035147;28;20729;-52
2023/04/01 06:10:11;;;;;;;3.23;2.43;;;;;;;;;;5029778;28;20294;-53
2023/04/01 06:12:44;;;;;;;4.10;2.57;;;;;;;;;;5021049;28;20235;-52
2023/04/01 06:15:28;;;;;;;3.63;2.37;;;;;;;;;;5022414;28;20677;-52
2023/04/01 06:18:05;;;;;;;3.80;2.20;;;;;;;;;;5031583;28;20311;-53
2023/04/01 06:20:37;;;;;;;5.07;2.60;;;;;;;;;;5036677;28;20247;-52
2023/04/01 06:23:09;;;;;;;3.03;2.37;;;;;;;;;;5034498;28;20254;-51
2023/04/01 06:25:49;;;;;;;4.07;2.60;;;;;;;;;;5026324;28;20228;-52
2023/04/01 06:28:40;;;;;;;4.00;1.93;;;;;;;;;;5019378;28;20271;-52
2023/04/01 06:31:11;;;;;;;4.00;2.70;;;;;;;;;;5047652;28;20462;-52
2023/04/01 06:33:53;;;;;;;6.10;3.47;;;;;;;;;;5036910;28;20228;-52
2023/04/01 06:36:24;;;;;;;5.83;2.97;;;;;;;;;;5046398;28;20312;-52
2023/04/01 06:39:08;;;;;;;7.20;3.00;;;;;;;;;;5045305;28;20682;-52
2023/04/01 06:41:47;;;;;;;3.30;2.67;;;;;;;;;;5045954;28;20293;-52
2023/04/01 06:44:19;;;;;;;2.23;2.13;;;;;;;;;;5037609;28;20228;-52
2023/04/01 06:46:47;;;;;;;2.43;2.17;;;;;;;;;;5040309;28;20227;-51
2023/04/01 06:49:22;;;;;;;6.00;2.93;;;;;;;;;;5045041;28;20567;-52
2023/04/01 06:51:52;;;;;;;3.00;2.40;;;;;;;;;;5038120;28;20323;-51
2023/04/01 06:54:21;;;;;;;4.97;2.60;;;;;;;;;;5024996;28;20244;-52
2023/04/01 06:56:51;;;;;;;3.27;2.03;;;;;;;;;;5026643;28;20231;-53
2023/04/01 06:59:20;;;;;;;6.20;2.47;;;;;;;;;;5026014;28;20621;-52
2023/04/01 07:01:50;;;;;;;2.77;2.40;;;;;;;;;;5026026;28;20244;-52
2023/04/01 07:04:20;;;;;;;6.17;2.40;;;;;;;;;;5026517;28;20237;-52
2023/04/01 07:06:49;;;;;;;4.10;2.37;;;;;;;;;;5028862;28;20315;-52
2023/04/01 07:09:20;;;;;;;4.93;1.90;;;;;;;;;;5023101;28;20525;-51
2023/04/01 07:11:47;;;;;;;3.23;1.70;;;;;;;;;;5024807;28;21541;-51
2023/04/01 07:14:18;;;;;;;3.83;2.17;;;;;;;;;;5034285;28;20339;-51
2023/04/01 07:16:50;;;;;;;4.80;2.13;;;;;;;;;;5026613;28;20229;-52
2023/04/01 07:19:19;;;;;;;6.93;2.40;;;;;;;;;;5025584;28;20236;-53
2023/04/01 07:21:48;;;;;;;2.10;1.90;;;;;;;;;;5016027;28;20598;-52
2023/04/01 07:24:18;;;;;;;3.70;1.70;;;;;;;;;;5025781;28;20239;-52
2023/04/01 07:26:45;;;;;;;1.70;1.27;;;;;;;;;;5031825;28;20265;-52
2023/04/01 07:29:12;;;;;;;4.67;2.10;;;;;;;;;;5041876;28;20248;-52
2023/04/01 07:31:46;;;;;;;2.33;1.87;;;;;;;;;;5032069;28;20248;-53
2023/04/01 07:34:19;;;;;;;4.20;1.60;;;;;;;;;;5031268;28;20266;-52
2023/04/01 07:36:48;;;;;;;7.77;2.20;;;;;;;;;;5024120;28;20243;-52
2023/04/01 07:39:21;;;;;;;3.73;2.20;;;;;;;;;;5027386;28;20232;-51
2023/04/01 07:41:51;;;;;;;2.70;1.93;;;;;;;;;;5040162;28;20264;-52
2023/04/01 07:44:23;;;;;;;1.53;1.43;;;;;;;;;;5036568;28;20318;-52
2023/04/01 07:47:08;;;;;;;1.93;1.60;;;;;;;;;;5037036;28;20267;-52
2023/04/01 07:49:41;;;;;;;2.33;2.10;;;;;;;;;;5031635;28;20532;-51
2023/04/01 07:52:12;;;;;;;3.33;2.10;;;;;;;;;;5024714;28;20236;-52
2023/04/01 07:54:42;;;;;;;2.07;1.97;;;;;;;;;;5037929;28;20655;-51
2023/04/01 07:57:13;;;;;;;3.90;2.17;;;;;;;;;;5020478;28;20244;-52
2023/04/01 07:59:45;;;;;;;3.10;2.37;;;;;;;;;;5019515;28;20235;-52
2023/04/01 08:02:16;;;;;;;3.07;2.63;;;;;;;;;;5020463;28;20237;-55
2023/04/01 08:04:50;;;;;;;3.50;2.93;;;;;;;;;;5016140;28;20256;-51
2023/04/01 08:07:18;;;;;;;2.93;2.43;;;;;;;;;;5026632;28;20318;-52
2023/04/01 08:09:49;;;;;;;3.63;2.93;;;;;;;;;;5020081;28;20220;-52
2023/04/01 08:12:22;;;;;;;3.03;2.73;;;;;;;;;;5025324;28;20232;-52
2023/04/01 08:14:54;;;;;;;3.43;3.13;;;;;;;;;;5022355;28;20769;-52
2023/04/01 08:17:24;;;;;;;5.13;3.30;;;;;;;;;;5035437;28;20699;-54
2023/04/01 08:19:59;;;;;;;2.77;2.53;;;;;;;;;;5026562;28;20228;-52
2023/04/01 08:22:28;;;;;;;2.63;2.43;;;;;;;;;;5026056;28;20655;-52
2023/04/01 08:24:57;;;;;;;2.27;2.07;;;;;;;;;;5024716;28;20225;-52
2023/04/01 08:27:26;;;;;;;4.13;2.80;;;;;;;;;;5024262;28;20259;-52
2023/04/01 08:29:57;;;;;;;3.47;3.10;;;;;;;;;;5025926;28;20228;-52
2023/04/01 08:32:26;;;;;;;4.30;2.30;;;;;;;;;;5031541;28;20240;-52
2023/04/01 08:34:56;;;;;;;3.10;2.80;;;;;;;;;;5044005;28;20741;-52
2023/04/01 08:37:27;;;;;;;3.47;1.83;;;;;;;;;;5029993;28;20232;-52
2023/04/01 08:39:57;;;;;;;1.90;1.67;;;;;;;;;;5043363;28;20358;-52
2023/04/01 08:42:32;;;;;;;2.27;2.00;;;;;;;;;;5042492;28;20231;-53
2023/04/01 08:45:15;;;;;;;2.37;2.00;;;;;;;;;;5032014;28;20430;-53
2023/04/01 08:47:53;;;;;;;2.07;1.80;;;;;;;;;;5027377;28;20229;-52
2023/04/01 08:50:31;;;;;;;2.00;1.80;;;;;;;;;;5021497;28;20334;-53
2023/04/01 08:53:04;;;;;;;3.07;2.60;;;;;;;;;;5022158;28;20302;-52
2023/04/01 08:55:39;;;;;;;3.77;2.90;;;;;;;;;;5020237;28;20723;-52
2023/04/01 08:58:19;;;;;;;3.00;2.70;;;;;;;;;;5024146;28;20752;-53
2023/04/01 09:00:49;;;;;;;3.53;3.23;;;;;;;;;;5022643;28;20232;-52
2023/04/01 09:03:42;;;;;;;4.73;3.97;;;;;;;;;;5023928;28;20320;-53
2023/04/01 09:06:26;;;;;;;5.80;4.37;;;;;;;;;;5039035;28;20319;-54
2023/04/01 09:09:03;;;;;;;4.03;3.63;;;;;;;;;;5032817;28;20236;-51
2023/04/01 09:11:36;;;;;;;5.27;4.77;;;;;;;;;;5037527;28;20787;-51
2023/04/01 09:14:20;;;;;;;5.37;4.57;;;;;;;;;;5036626;28;20236;-51
2023/04/01 09:16:59;;;;;;;7.03;5.50;;;;;;;;;;5026156;28;20278;-51
2023/04/01 09:19:30;;;;;;;7.03;4.73;;;;;;;;;;5029702;28;20228;-51
2023/04/01 09:22:00;;;;;;;5.67;4.87;;;;;;;;;;5033726;28;20239;-54
2023/04/01 09:24:44;;;;;;;5.87;4.20;;;;;;;;;;5032568;28;20240;-52
2023/04/01 09:27:18;;;;;;;6.93;6.17;;;;;;;;;;5022684;28;20295;-52
2023/04/01 09:29:54;;;;;;;7.40;6.70;;;;;;;;;;5027153;28;20628;-51
2023/04/01 09:32:43;;;;;;;6.93;6.30;;;;;;;;;;5044302;28;20248;-51
2023/04/01 09:35:21;;;;;;;7.47;6.73;;;;;;;;;;5033860;28;20236;-52
2023/04/01 09:37:53;;;;;;;8.50;7.63;;;;;;;;;;5042444;28;20228;-52
2023/04/01 09:40:24;;;;;;;8.10;7.30;;;;;;;;;;5043029;28;20235;-52
2023/04/01 09:43:02;;;;;;;9.23;8.30;;;;;;;;;;5044123;28;20317;-52
2023/04/01 09:45:43;;;;;;;8.50;7.70;;;;;;;;;;5034471;28;20313;-52
2023/04/01 09:48:18;;;;;;;9.77;8.70;;;;;;;;;;5039311;28;20243;-51
2023/04/01 09:50:52;;;;;;;11.07;8.90;;;;;;;;;;5038696;28;20228;-52
2023/04/01 09:53:26;;;;;;;10.37;9.27;;;;;;;;;;5022617;28;20236;-51
2023/04/01 09:56:11;;;;;;;11.73;9.00;;;;;;;;;;5024684;28;20650;-51
2023/04/01 09:58:54;;;;;;;10.07;9.07;;;;;;;;;;5023253;28;20264;-51
2023/04/01 10:01:38;;;;;;;9.90;8.90;;;;;;;;;;5022368;28;20381;-51
2023/04/01 10:04:19;;;;;;;9.53;8.63;;;;;;;;;;5016442;28;20241;-51
2023/04/01 10:07:05;;;;;;;8.70;7.80;;;;;;;;;;5017762;28;20224;-51
2023/04/01 10:09:52;;;;;;;9.50;8.60;;;;;;;;;;5024112;28;20236;-54
2023/04/01 10:12:38;;;;;;;11.23;8.93;;;;;;;;;;5004535;28;20271;-51
2023/04/01 10:15:25;;;;;;;9.60;8.73;;;;;;;;;;5020061;28;20864;-51
2023/04/01 10:18:03;;;;;;;9.77;8.80;;;;;;;;;;5037028;28;20231;-51
2023/04/01 10:20:35;;;;;;;9.67;8.13;;;;;;;;;;5021824;28;20315;-52
2023/04/01 10:23:17;;;;;;;8.57;7.47;;;;;;;;;;5029934;28;20247;-50
2023/04/01 10:25:54;;;;;;;9.93;8.93;;;;;;;;;;5024637;28;20742;-53
2023/04/01 10:28:36;;;;;;;9.93;8.93;;;;;;;;;;5022758;28;20336;-52
2023/04/01 10:31:21;;;;;;;9.67;8.67;;;;;;;;;;5023596;28;20282;-51
2023/04/01 10:34:06;;;;;;;9.83;8.83;;;;;;;;;;5021873;28;20236;-51
2023/04/01 10:36:53;;;;;;;9.47;8.57;;;;;;;;;;5023121;28;20818;-52
2023/04/01 10:39:33;;;;;;;10.00;8.50;;;;;;;;;;5020422;28;20239;-53
2023/04/01 10:42:13;;;;;;;7.30;6.60;;;;;;;;;;5016015;28;20306;-53
2023/04/01 10:44:59;;;;;;;8.70;7.90;;;;;;;;;;5026945;28;20221;-54
2023/04/01 10:47:52;;;;;;;8.53;7.73;;;;;;;;;;5018921;28;20248;-52
2023/04/01 10:50:32;;;;;;;9.73;8.70;;;;;;;;;;5033145;28;20817;-51
2023/04/01 10:53:17;;;;;;;9.33;8.43;;;;;;;;;;5037956;28;20220;-52
2023/04/01 10:55:54;;;;;;;10.50;9.40;;;;;;;;;;5030431;28;20235;-51
2023/04/01 10:58:44;;;;;;;9.87;8.97;;;;;;;;;;5032879;28;20784;-51
2023/04/01 11:01:31;;;;;;;9.23;8.33;;;;;;;;;;5022091;28;20263;-52
2023/04/01 11:04:16;;;;;;;9.30;8.40;;;;;;;;;;5016364;28;20243;-52
2023/04/01 11:07:00;;;;;;;9.07;8.17;;;;;;;;;;5031562;28;20235;-52
2023/04/01 11:09:45;;;;;;;8.50;7.67;;;;;;;;;;5018668;28;20224;-52
2023/04/01 11:12:34;;;;;;;9.00;8.20;;;;;;;;;;5022560;28;20228;-52
2023/04/01 11:15:16;;;;;;;8.43;7.63;;;;;;;;;;5005762;28;20227;-51
2023/04/01 11:18:09;;;;;;;9.30;8.40;;;;;;;;;;5026543;28;20251;-52
2023/04/01 11:20:55;;;;;;;8.60;7.47;;;;;;;;;;5037931;28;20236;-52
2023/04/01 11:23:38;;;;;;;9.47;8.50;;;;;;;;;;5023744;28;20321;-51
2023/04/01 11:26:15;;;;;;;9.17;8.17;;;;;;;;;;5026155;28;20232;-51
2023/04/01 11:28:50;;;;;;;7.90;7.17;;;;;;;;;;5032403;28;20252;-53
2023/04/01 11:31:24;;;;;;;8.80;8.00;;;;;;;;;;5032640;28;20654;-53
2023/04/01 11:33:53;;;;;;;9.13;8.03;;;;;;;;;;5028079;28;20656;-54
2023/04/01 11:36:26;;;;;;;8.73;7.90;;;;;;;;;;5044082;28;20729;-55
2023/04/01 11:39:06;;;;;;;9.00;8.20;;;;;;;;;;5044568;28;20239;-52
2023/04/01 11:41:38;;;;;;;9.00;8.17;;;;;;;;;;5022067;28;20232;-52
2023/04/01 11:44:12;;;;;;;9.37;8.47;;;;;;;;;;5022219;28;20619;-52
2023/04/01 11:46:43;;;;;;;8.80;7.90;;;;;;;;;;5025585;28;20228;-52
2023/04/01 11:49:19;;;;;;;8.43;7.70;;;;;;;;;;5019594;28;20237;-57
2023/04/01 11:51:52;;;;;;;8.47;7.70;;;;;;;;;;5018908;28;20243;-53
2023/04/01 11:54:28;;;;;;;9.67;8.70;;;;;;;;;;5035554;28;20228;-52
2023/04/01 11:57:06;;;;;;;9.50;8.53;;;;;;;;;;5042626;28;20988;-53
2023/04/01 11:59:48;;;;;;;8.73;7.93;;;;;;;;;;5040750;28;20224;-52
2023/04/01 12:02:19;;;;;;;10.13;9.23;;;;;;;;;;5040892;28;20691;-52
2023/04/01 12:04:54;;;;;;;10.20;9.20;;;;;;;;;;5041253;28;20318;-53
2023/04/01 12:07:23;;;;;;;10.13;9.13;;;;;;;;;;5039603;28;20641;-52
2023/04/01 12:09:55;;;;;;;10.27;9.37;;;;;;;;;;5039957;28;20300;-53
2023/04/01 12:12:26;;;;;;;9.63;8.73;;;;;;;;;;5039063;28;20241;-51
2023/04/01 12:14:59;;;;;;;9.93;8.93;;;;;;;;;;5040017;28;20721;-52
2023/04/01 12:17:30;;;;;;;10.33;9.23;;;;;;;;;;5041442;28;20238;-53
2023/04/01 12:19:59;;;;;;;10.07;9.13;;;;;;;;;;5040677;28;20242;-53
2023/04/01 12:22:42;;;;;;;10.17;9.17;;;;;;;;;;5031318;28;20244;-54
2023/04/01 12:25:18;;;;;;;11.40;10.37;;;;;;;;;;5039050;28;20360;-54
2023/04/01 12:27:49;;;;;;;11.47;10.37;;;;;;;;;;5036536;28;20305;-57
2023/04/01 12:30:36;;;;;;;11.60;9.93;;;;;;;;;;5025313;28;20695;-52
2023/04/01 12:33:16;;;;;;;9.83;8.93;;;;;;;;;;5038799;28;20231;-52
2023/04/01 12:35:51;;;;;;;11.00;9.90;;;;;;;;;;5027960;28;20299;-52
2023/04/01 12:38:25;;;;;;;12.40;11.20;;;;;;;;;;5029776;28;20232;-52
2023/04/01 12:40:57;;;;;;;10.47;9.47;;;;;;;;;;5026994;28;20298;-53
2023/04/01 12:43:33;;;;;;;10.50;9.40;;;;;;;;;;5032447;28;20223;-52
2023/04/01 12:46:05;;;;;;;10.80;9.80;;;;;;;;;;5034072;28;20738;-53
2023/04/01 12:48:53;;;;;;;9.50;8.60;;;;;;;;;;5028082;28;20294;-53
2023/04/01 12:51:40;;;;;;;9.80;8.80;;;;;;;;;;5022528;28;20293;-52
2023/04/01 12:54:19;;;;;;;9.67;8.77;;;;;;;;;;5029673;28;20703;-54
2023/04/01 12:56:51;;;;;;;9.30;8.50;;;;;;;;;;5034043;28;20231;-54
2023/04/01 12:59:28;;;;;;;11.47;10.27;;;;;;;;;;5018354;28;20662;-52
2023/04/01 13:02:15;;;;;;;11.40;10.17;;;;;;;;;;5029197;28;20235;-52
2023/04/01 13:05:05;;;;;;;10.80;9.77;;;;;;;;;;5025485;28;20236;-52
2023/04/01 13:07:37;;;;;;;11.67;10.57;;;;;;;;;;5026572;28;20243;-53
2023/04/01 13:10:10;;;;;;;12.03;10.03;;;;;;;;;;5035374;28;20650;-53
2023/04/01 13:13:00;;;;;;;12.00;10.80;;;;;;;;;;5031368;28;20970;-52
2023/04/01 13:15:32;;;;;;;13.10;10.53;;;;;;;;;;5014406;28;20231;-53
2023/04/01 13:18:02;;;;;;;12.53;11.33;;;;;;;;;;5023196;28;20559;-54
2023/04/01 13:20:35;;;;;;;10.90;9.90;;;;;;;;;;5024025;28;20284;-52
2023/04/01 13:23:06;;;;;;;12.37;11.03;;;;;;;;;;5036663;28;20278;-53
2023/04/01 13:25:37;;;;;;;12.07;10.87;;;;;;;;;;5026097;28;20244;-53
2023/04/01 13:28:09;;;;;;;10.87;9.87;;;;;;;;;;5023261;28;20240;-52
2023/04/01 13:30:41;;;;;;;11.90;10.70;;;;;;;;;;5025694;28;20347;-52
2023/04/01 13:33:14;;;;;;;11.07;10.07;;;;;;;;;;5020998;28;20238;-52
2023/04/01 13:35:47;;;;;;;11.40;10.27;;;;;;;;;;5033600;28;20291;-52
2023/04/01 13:38:28;;;;;;;10.63;9.50;;;;;;;;;;5023583;28;20258;-52
2023/04/01 13:41:02;;;;;;;10.97;9.97;;;;;;;;;;5015453;28;20231;-52
2023/04/01 13:43:32;;;;;;;12.03;10.83;;;;;;;;;;5032740;28;20283;-53
2023/04/01 13:46:08;;;;;;;11.43;10.10;;;;;;;;;;5023437;28;20224;-54
2023/04/01 13:48:45;;;;;;;9.93;9.03;;;;;;;;;;5036868;28;20314;-52
2023/04/01 13:51:19;;;;;;;10.07;9.17;;;;;;;;;;5023483;28;20937;-52
2023/04/01 13:53:59;;;;;;;9.03;8.20;;;;;;;;;;5031887;28;20273;-53
2023/04/01 13:56:33;;;;;;;9.40;8.50;;;;;;;;;;5030186;28;20236;-52
2023/04/01 13:59:13;;;;;;;7.87;7.17;;;;;;;;;;5024036;28;20232;-53
2023/04/01 14:01:43;;;;;;;7.50;6.83;;;;;;;;;;5034778;28;20803;-52
2023/04/01 14:04:19;;;;;;;7.37;6.67;;;;;;;;;;5030528;28;20953;-52
2023/04/01 14:06:52;;;;;;;5.83;5.33;;;;;;;;;;5024386;28;20234;-54
2023/04/01 14:09:27;;;;;;;6.20;5.30;;;;;;;;;;5031280;28;20252;-51
2023/04/01 14:11:56;;;;;;;5.70;5.20;;;;;;;;;;5024939;28;20242;-50
2023/04/01 14:14:32;;;;;;;6.03;5.47;;;;;;;;;;5026090;28;20523;-52
2023/04/01 14:17:11;;;;;;;5.67;5.07;;;;;;;;;;5032266;28;20261;-50
2023/04/01 14:19:54;;;;;;;5.67;5.27;;;;;;;;;;5020411;28;20244;-51
2023/04/01 14:22:27;;;;;;;5.90;5.40;;;;;;;;;;5023000;28;20311;-52
2023/04/01 14:25:07;;;;;;;5.93;5.33;;;;;;;;;;5032788;28;20228;-51
2023/04/01 14:27:48;;;;;;;5.10;4.70;;;;;;;;;;5023472;28;20264;-50
2023/04/01 14:30:26;;;;;;;6.23;5.73;;;;;;;;;;5023058;28;20252;-52
2023/04/01 14:32:57;;;;;;;5.30;4.80;;;;;;;;;;5024970;28;20323;-52
2023/04/01 14:35:28;;;;;;;5.40;5.00;;;;;;;;;;5040299;28;20278;-51
2023/04/01 14:37:59;;;;;;;4.97;4.03;;;;;;;;;;5039892;28;20236;-52
2023/04/01 14:40:29;;;;;;;4.73;4.33;;;;;;;;;;5039513;28;20702;-51
2023/04/01 14:43:03;;;;;;;5.10;3.83;;;;;;;;;;5045728;28;20232;-51
2023/04/01 14:45:42;;;;;;;4.67;4.27;;;;;;;;;;5040942;28;20236;-51
2023/04/01 14:48:16;;;;;;;4.63;4.27;;;;;;;;;;5035123;28;20319;-53
2023/04/01 14:50:44;;;;;;;5.20;4.43;;;;;;;;;;5029165;28;20703;-51
2023/04/01 14:53:14;;;;;;;4.70;4.30;;;;;;;;;;5044891;28;20902;-53
2023/04/01 14:55:49;;;;;;;4.77;4.37;;;;;;;;;;5035444;28;20228;-54
2023/04/01 14:58:16;;;;;;;4.90;4.40;;;;;;;;;;5025934;28;20243;-54
2023/04/01 15:00:51;;;;;;;4.60;4.20;;;;;;;;;;5031656;28;20228;-53
2023/04/01 15:03:23;;;;;;;4.20;3.90;;;;;;;;;;5030637;28;21040;-53
2023/04/01 15:05:50;;;;;;;4.30;4.00;;;;;;;;;;5030501;28;20228;-52
2023/04/01 15:08:19;;;;;;;4.73;4.33;;;;;;;;;;5027042;28;20430;-52
2023/04/01 15:10:54;;;;;;;4.20;3.80;;;;;;;;;;5034751;28;20233;-55